CMB827 Details

Departure: Wake Island Airfield (PWAK)
Arrival: Daniel K Inouye International Airport (PHNL)
Route: AWK 2000N/17000E 2100N/18000E 2100N/17000W KATHS
Notes: USTRANSCOM CONTRACT FLIGHT


Current Weather Information
PWAK 221158Z AUTO 22004KT 9999 SCT017 25/22 A2985 RMK AO2 SLP115 50007
PHNL 221153Z 05007KT 10SM FEW025 23/16 A3009 RMK AO2 SLP187 T02330161 10239 20228 58016